sensor_id;sensor_type;location;lat;lon;timestamp;temperature;humidity
30385;DHT22;17181;51.002;4.096;2024-01-15T00:28:27;4.10;99.90
30385;DHT22;17181;51.002;4.096;2024-01-15T00:30:54;4.10;99.90
30385;DHT22;17181;51.002;4.096;2024-01-15T00:33:24;4.10;99.90
30385;DHT22;17181;51.002;4.096;2024-01-15T00:35:51;4.10;99.90
30385;DHT22;17181;51.002;4.096;2024-01-15T00:38:17;4.10;99.90
30385;DHT22;17181;51.002;4.096;2024-01-15T00:40:43;4.30;99.90
30385;DHT22;17181;51.002;4.096;2024-01-15T00:43:10;4.30;99.90
30385;DHT22;17181;51.002;4.096;2024-01-15T00:46:16;4.30;99.90
30385;DHT22;17181;51.002;4.096;2024-01-15T14:30:25;3.50;99.90
30385;DHT22;17181;51.002;4.096;2024-01-15T14:33:16;3.40;99.90
30385;DHT22;17181;51.002;4.096;2024-01-15T14:35:42;3.30;99.90
30385;DHT22;17181;51.002;4.096;2024-01-15T14:38:09;3.20;99.90
30385;DHT22;17181;51.002;4.096;2024-01-15T14:40:35;3.20;99.90
30385;DHT22;17181;51.002;4.096;2024-01-15T14:43:07;3.20;99.90
30385;DHT22;17181;51.002;4.096;2024-01-15T14:45:36;3.20;99.90
30385;DHT22;17181;51.002;4.096;2024-01-15T14:48:06;3.10;99.90
30385;DHT22;17181;51.002;4.096;2024-01-15T14:50:36;3.10;99.90
30385;DHT22;17181;51.002;4.096;2024-01-15T14:53:07;3.10;99.90
30385;DHT22;17181;51.002;4.096;2024-01-15T14:55:37;3.10;99.90
30385;DHT22;17181;51.002;4.096;2024-01-15T14:58:06;3.10;99.90
30385;DHT22;17181;51.002;4.096;2024-01-15T15:00:36;3.10;99.90
30385;DHT22;17181;51.002;4.096;2024-01-15T15:03:03;3.30;99.90
30385;DHT22;17181;51.002;4.096;2024-01-15T15:05:31;3.60;99.90
30385;DHT22;17181;51.002;4.096;2024-01-15T15:07:58;4.10;99.90
30385;DHT22;17181;51.002;4.096;2024-01-15T15:10:26;4.60;99.90
30385;DHT22;17181;51.002;4.096;2024-01-15T15:12:56;5.00;99.90
30385;DHT22;17181;51.002;4.096;2024-01-15T15:15:26;5.10;99.90
30385;DHT22;17181;51.002;4.096;2024-01-15T15:17:56;4.80;99.90
30385;DHT22;17181;51.002;4.096;2024-01-15T15:20:34;4.50;99.90
30385;DHT22;17181;51.002;4.096;2024-01-15T15:23:34;4.20;99.90
30385;DHT22;17181;51.002;4.096;2024-01-15T15:43:31;3.40;99.90
30385;DHT22;17181;51.002;4.096;2024-01-15T15:51:36;3.30;99.90
30385;DHT22;17181;51.002;4.096;2024-01-15T17:28:47;2.10;99.90
30385;DHT22;17181;51.002;4.096;2024-01-15T17:31:46;2.20;99.90
30385;DHT22;17181;51.002;4.096;2024-01-15T17:36:57;2.20;99.90
30385;DHT22;17181;51.002;4.096;2024-01-15T17:46:37;2.30;99.90
30385;DHT22;17181;51.002;4.096;2024-01-15T17:49:06;2.40;99.90
30385;DHT22;17181;51.002;4.096;2024-01-15T17:51:35;2.40;99.90
30385;DHT22;17181;51.002;4.096;2024-01-15T19:15:37;2.80;99.90
30385;DHT22;17181;51.002;4.096;2024-01-15T19:18:03;2.80;99.90
30385;DHT22;17181;51.002;4.096;2024-01-15T19:20:28;2.90;99.90
30385;DHT22;17181;51.002;4.096;2024-01-15T19:22:54;2.80;99.90
30385;DHT22;17181;51.002;4.096;2024-01-15T19:25:20;2.90;99.90
30385;DHT22;17181;51.002;4.096;2024-01-15T19:27:46;2.90;99.90
30385;DHT22;17181;51.002;4.096;2024-01-15T19:30:12;2.90;99.90
30385;DHT22;17181;51.002;4.096;2024-01-15T19:32:40;2.90;99.90
30385;DHT22;17181;51.002;4.096;2024-01-15T19:35:12;2.90;99.90
30385;DHT22;17181;51.002;4.096;2024-01-15T19:37:38;2.90;99.90
30385;DHT22;17181;51.002;4.096;2024-01-15T19:40:04;3.00;99.90
30385;DHT22;17181;51.002;4.096;2024-01-15T19:42:30;3.00;99.90
30385;DHT22;17181;51.002;4.096;2024-01-15T19:44:57;3.00;99.90
30385;DHT22;17181;51.002;4.096;2024-01-15T19:47:24;3.00;99.90
30385;DHT22;17181;51.002;4.096;2024-01-15T19:49:50;3.00;99.90
30385;DHT22;17181;51.002;4.096;2024-01-15T19:52:16;3.00;99.90
30385;DHT22;17181;51.002;4.096;2024-01-15T19:54:42;3.00;99.90
30385;DHT22;17181;51.002;4.096;2024-01-15T19:57:08;3.00;99.90
30385;DHT22;17181;51.002;4.096;2024-01-15T19:59:34;3.10;99.90
30385;DHT22;17181;51.002;4.096;2024-01-15T20:02:00;3.00;99.90
30385;DHT22;17181;51.002;4.096;2024-01-15T20:04:25;3.10;99.90
30385;DHT22;17181;51.002;4.096;2024-01-15T20:06:52;3.10;99.90
30385;DHT22;17181;51.002;4.096;2024-01-15T20:09:17;3.10;99.90
30385;DHT22;17181;51.002;4.096;2024-01-15T20:11:44;3.10;99.90
30385;DHT22;17181;51.002;4.096;2024-01-15T20:14:11;3.10;99.90
30385;DHT22;17181;51.002;4.096;2024-01-15T20:16:38;3.20;99.90
30385;DHT22;17181;51.002;4.096;2024-01-15T20:19:05;3.10;99.90
30385;DHT22;17181;51.002;4.096;2024-01-15T20:21:32;3.10;99.90
30385;DHT22;17181;51.002;4.096;2024-01-15T20:23:58;3.10;99.90
30385;DHT22;17181;51.002;4.096;2024-01-15T20:26:25;3.20;99.90
30385;DHT22;17181;51.002;4.096;2024-01-15T20:28:52;3.20;99.90
30385;DHT22;17181;51.002;4.096;2024-01-15T20:31:18;3.20;99.90
30385;DHT22;17181;51.002;4.096;2024-01-15T20:33:43;3.20;99.90
30385;DHT22;17181;51.002;4.096;2024-01-15T21:35:50;3.20;99.90
30385;DHT22;17181;51.002;4.096;2024-01-15T21:38:18;3.20;99.90
30385;DHT22;17181;51.002;4.096;2024-01-15T21:40:44;3.20;99.90
30385;DHT22;17181;51.002;4.096;2024-01-15T21:43:11;3.20;99.90
30385;DHT22;17181;51.002;4.096;2024-01-15T21:45:37;3.20;99.90
30385;DHT22;17181;51.002;4.096;2024-01-15T21:48:03;3.20;99.90
30385;DHT22;17181;51.002;4.096;2024-01-15T21:50:30;3.20;99.90
30385;DHT22;17181;51.002;4.096;2024-01-15T21:52:56;3.20;99.90
30385;DHT22;17181;51.002;4.096;2024-01-15T21:55:25;3.20;99.90
30385;DHT22;17181;51.002;4.096;2024-01-15T21:57:54;3.20;99.90
30385;DHT22;17181;51.002;4.096;2024-01-15T22:00:20;3.20;99.90
30385;DHT22;17181;51.002;4.096;2024-01-15T22:02:50;3.30;99.90
30385;DHT22;17181;51.002;4.096;2024-01-15T22:05:18;3.30;99.90
30385;DHT22;17181;51.002;4.096;2024-01-15T22:07:45;3.30;99.90
30385;DHT22;17181;51.002;4.096;2024-01-15T22:10:11;3.20;99.90
30385;DHT22;17181;51.002;4.096;2024-01-15T22:12:37;3.20;99.90
30385;DHT22;17181;51.002;4.096;2024-01-15T22:15:04;3.30;99.90
30385;DHT22;17181;51.002;4.096;2024-01-15T22:17:30;3.20;99.90
30385;DHT22;17181;51.002;4.096;2024-01-15T22:19:56;3.20;99.90
30385;DHT22;17181;51.002;4.096;2024-01-15T22:22:25;3.20;99.90
30385;DHT22;17181;51.002;4.096;2024-01-15T22:24:52;3.20;99.90
30385;DHT22;17181;51.002;4.096;2024-01-15T22:27:19;3.20;99.90
30385;DHT22;17181;51.002;4.096;2024-01-15T22:29:45;3.30;99.90
30385;DHT22;17181;51.002;4.096;2024-01-15T22:32:13;3.30;99.90
30385;DHT22;17181;51.002;4.096;2024-01-15T22:34:39;3.20;99.90
30385;DHT22;17181;51.002;4.096;2024-01-15T22:37:06;3.20;99.90
30385;DHT22;17181;51.002;4.096;2024-01-15T22:39:32;3.20;99.90
30385;DHT22;17181;51.002;4.096;2024-01-15T22:41:59;3.20;99.90
30385;DHT22;17181;51.002;4.096;2024-01-15T22:44:28;3.20;99.90
30385;DHT22;17181;51.002;4.096;2024-01-15T22:46:57;3.20;99.90
30385;DHT22;17181;51.002;4.096;2024-01-15T22:49:29;3.20;99.90
30385;DHT22;17181;51.002;4.096;2024-01-15T22:51:56;3.10;99.90
30385;DHT22;17181;51.002;4.096;2024-01-15T22:54:25;3.20;99.90
30385;DHT22;17181;51.002;4.096;2024-01-15T22:56:52;3.10;99.90
30385;DHT22;17181;51.002;4.096;2024-01-15T22:59:18;3.10;99.90
30385;DHT22;17181;51.002;4.096;2024-01-15T23:01:47;3.10;99.90
30385;DHT22;17181;51.002;4.096;2024-01-15T23:04:14;3.10;99.90
30385;DHT22;17181;51.002;4.096;2024-01-15T23:06:41;3.00;99.90
30385;DHT22;17181;51.002;4.096;2024-01-15T23:12:00;3.00;99.90
30385;DHT22;17181;51.002;4.096;2024-01-15T23:14:27;2.90;99.90
30385;DHT22;17181;51.002;4.096;2024-01-15T23:16:54;2.90;99.90
30385;DHT22;17181;51.002;4.096;2024-01-15T23:19:23;2.90;99.90
30385;DHT22;17181;51.002;4.096;2024-01-15T23:21:49;2.90;99.90
30385;DHT22;17181;51.002;4.096;2024-01-15T23:24:16;3.00;99.90
30385;DHT22;17181;51.002;4.096;2024-01-15T23:26:44;3.00;99.90
30385;DHT22;17181;51.002;4.096;2024-01-15T23:29:11;3.00;99.90
